sensor_id;sensor_type;location;lat;lon;timestamp;P1;durP1;ratioP1;P2;durP2;ratioP2
34900;SDS011;21112;51.976;5.660;2022-08-19T00:01:34;3.80;;;1.73;;
34900;SDS011;21112;51.976;5.660;2022-08-19T00:04:02;5.28;;;1.83;;
34900;SDS011;21112;51.976;5.660;2022-08-19T00:06:29;3.65;;;1.65;;
34900;SDS011;21112;51.976;5.660;2022-08-19T00:08:56;3.40;;;1.80;;
34900;SDS011;21112;51.976;5.660;2022-08-19T00:11:25;4.03;;;2.08;;
34900;SDS011;21112;51.976;5.660;2022-08-19T00:13:54;2.73;;;1.77;;
34900;SDS011;21112;51.976;5.660;2022-08-19T00:16:21;5.32;;;1.80;;
34900;SDS011;21112;51.976;5.660;2022-08-19T00:18:48;3.38;;;1.83;;
34900;SDS011;21112;51.976;5.660;2022-08-19T00:21:14;4.25;;;1.55;;
34900;SDS011;21112;51.976;5.660;2022-08-19T00:23:41;4.43;;;1.85;;
34900;SDS011;21112;51.976;5.660;2022-08-19T00:26:08;3.83;;;1.77;;
34900;SDS011;21112;51.976;5.660;2022-08-19T00:28:35;3.08;;;1.70;;
34900;SDS011;21112;51.976;5.660;2022-08-19T00:31:05;3.85;;;2.03;;
34900;SDS011;21112;51.976;5.660;2022-08-19T00:33:32;3.33;;;1.90;;
34900;SDS011;21112;51.976;5.660;2022-08-19T00:35:59;3.97;;;1.60;;
34900;SDS011;21112;51.976;5.660;2022-08-19T00:38:26;3.58;;;1.83;;
34900;SDS011;21112;51.976;5.660;2022-08-19T00:40:56;3.58;;;1.77;;
34900;SDS011;21112;51.976;5.660;2022-08-19T00:43:24;4.05;;;1.88;;
34900;SDS011;21112;51.976;5.660;2022-08-19T00:45:51;3.63;;;1.67;;
34900;SDS011;21112;51.976;5.660;2022-08-19T00:48:20;3.75;;;1.80;;
34900;SDS011;21112;51.976;5.660;2022-08-19T00:50:47;3.47;;;1.80;;
34900;SDS011;21112;51.976;5.660;2022-08-19T00:53:15;3.55;;;1.67;;
34900;SDS011;21112;51.976;5.660;2022-08-19T00:55:42;3.05;;;1.70;;
34900;SDS011;21112;51.976;5.660;2022-08-19T00:58:12;2.97;;;1.50;;
34900;SDS011;21112;51.976;5.660;2022-08-19T01:00:40;4.95;;;1.65;;
34900;SDS011;21112;51.976;5.660;2022-08-19T01:03:09;3.40;;;1.83;;
34900;SDS011;21112;51.976;5.660;2022-08-19T01:05:37;3.65;;;1.88;;
34900;SDS011;21112;51.976;5.660;2022-08-19T01:08:06;3.65;;;1.83;;
34900;SDS011;21112;51.976;5.660;2022-08-19T01:10:33;3.63;;;2.10;;
34900;SDS011;21112;51.976;5.660;2022-08-19T01:13:02;4.00;;;1.92;;
34900;SDS011;21112;51.976;5.660;2022-08-19T01:15:29;3.60;;;1.60;;
34900;SDS011;21112;51.976;5.660;2022-08-19T01:17:57;4.38;;;2.00;;
34900;SDS011;21112;51.976;5.660;2022-08-19T01:20:25;3.30;;;1.90;;
34900;SDS011;21112;51.976;5.660;2022-08-19T01:22:54;3.58;;;2.00;;
34900;SDS011;21112;51.976;5.660;2022-08-19T01:25:22;4.22;;;1.90;;
34900;SDS011;21112;51.976;5.660;2022-08-19T01:27:50;3.15;;;1.65;;
34900;SDS011;21112;51.976;5.660;2022-08-19T01:30:19;2.67;;;1.55;;
34900;SDS011;21112;51.976;5.660;2022-08-19T01:32:46;3.53;;;1.90;;
34900;SDS011;21112;51.976;5.660;2022-08-19T01:35:13;3.67;;;1.88;;
34900;SDS011;21112;51.976;5.660;2022-08-19T01:37:44;4.80;;;2.27;;
34900;SDS011;21112;51.976;5.660;2022-08-19T01:40:12;3.90;;;1.90;;
34900;SDS011;21112;51.976;5.660;2022-08-19T01:42:39;2.80;;;1.67;;
34900;SDS011;21112;51.976;5.660;2022-08-19T01:45:06;4.15;;;1.90;;
34900;SDS011;21112;51.976;5.660;2022-08-19T01:47:33;4.55;;;1.83;;
34900;SDS011;21112;51.976;5.660;2022-08-19T01:50:00;4.82;;;2.10;;
34900;SDS011;21112;51.976;5.660;2022-08-19T01:52:27;3.45;;;1.98;;
34900;SDS011;21112;51.976;5.660;2022-08-19T01:54:53;3.30;;;1.70;;
34900;SDS011;21112;51.976;5.660;2022-08-19T01:57:21;3.85;;;1.60;;
34900;SDS011;21112;51.976;5.660;2022-08-19T01:59:48;4.30;;;2.00;;
34900;SDS011;21112;51.976;5.660;2022-08-19T02:02:15;4.68;;;1.90;;
34900;SDS011;21112;51.976;5.660;2022-08-19T02:04:41;3.83;;;2.10;;
34900;SDS011;21112;51.976;5.660;2022-08-19T02:07:08;3.38;;;1.58;;
34900;SDS011;21112;51.976;5.660;2022-08-19T02:09:34;3.63;;;1.83;;
34900;SDS011;21112;51.976;5.660;2022-08-19T02:12:01;2.53;;;1.80;;
34900;SDS011;21112;51.976;5.660;2022-08-19T02:14:29;3.53;;;1.90;;
34900;SDS011;21112;51.976;5.660;2022-08-19T02:16:56;3.70;;;2.15;;
34900;SDS011;21112;51.976;5.660;2022-08-19T02:19:22;3.13;;;1.75;;
34900;SDS011;21112;51.976;5.660;2022-08-19T02:21:49;4.05;;;1.80;;
34900;SDS011;21112;51.976;5.660;2022-08-19T02:24:15;4.15;;;2.03;;
34900;SDS011;21112;51.976;5.660;2022-08-19T02:26:42;3.85;;;1.92;;
34900;SDS011;21112;51.976;5.660;2022-08-19T02:29:08;4.25;;;2.10;;
34900;SDS011;21112;51.976;5.660;2022-08-19T02:31:41;3.65;;;1.83;;
34900;SDS011;21112;51.976;5.660;2022-08-19T02:34:07;3.78;;;1.75;;
34900;SDS011;21112;51.976;5.660;2022-08-19T02:36:34;4.53;;;2.25;;
34900;SDS011;21112;51.976;5.660;2022-08-19T02:39:00;4.15;;;1.75;;
34900;SDS011;21112;51.976;5.660;2022-08-19T02:41:27;3.50;;;1.83;;
34900;SDS011;21112;51.976;5.660;2022-08-19T02:43:54;5.10;;;2.00;;
34900;SDS011;21112;51.976;5.660;2022-08-19T02:46:22;3.38;;;1.90;;
34900;SDS011;21112;51.976;5.660;2022-08-19T02:48:51;2.97;;;1.75;;
34900;SDS011;21112;51.976;5.660;2022-08-19T02:51:19;4.38;;;1.90;;
34900;SDS011;21112;51.976;5.660;2022-08-19T02:53:46;3.83;;;1.92;;
34900;SDS011;21112;51.976;5.660;2022-08-19T02:56:13;4.28;;;2.00;;
34900;SDS011;21112;51.976;5.660;2022-08-19T02:58:40;2.97;;;1.67;;
34900;SDS011;21112;51.976;5.660;2022-08-19T03:01:09;3.78;;;2.08;;
34900;SDS011;21112;51.976;5.660;2022-08-19T03:03:36;3.42;;;1.60;;
34900;SDS011;21112;51.976;5.660;2022-08-19T03:06:08;4.22;;;1.90;;
34900;SDS011;21112;51.976;5.660;2022-08-19T03:08:36;3.22;;;2.00;;
34900;SDS011;21112;51.976;5.660;2022-08-19T03:11:03;3.25;;;1.98;;
34900;SDS011;21112;51.976;5.660;2022-08-19T03:13:30;3.30;;;1.90;;
34900;SDS011;21112;51.976;5.660;2022-08-19T03:15:57;3.97;;;1.90;;
34900;SDS011;21112;51.976;5.660;2022-08-19T03:18:24;3.17;;;1.90;;
34900;SDS011;21112;51.976;5.660;2022-08-19T03:20:51;2.90;;;1.67;;
34900;SDS011;21112;51.976;5.660;2022-08-19T03:25:48;3.50;;;1.60;;
34900;SDS011;21112;51.976;5.660;2022-08-19T03:28:15;3.17;;;1.63;;
34900;SDS011;21112;51.976;5.660;2022-08-19T03:30:42;2.92;;;1.58;;
34900;SDS011;21112;51.976;5.660;2022-08-19T03:33:21;3.80;;;1.90;;
34900;SDS011;21112;51.976;5.660;2022-08-19T03:35:47;2.97;;;1.83;;
34900;SDS011;21112;51.976;5.660;2022-08-19T03:38:25;3.92;;;1.90;;
34900;SDS011;21112;51.976;5.660;2022-08-19T03:40:53;3.53;;;1.73;;
34900;SDS011;21112;51.976;5.660;2022-08-19T03:43:19;4.10;;;1.85;;
34900;SDS011;21112;51.976;5.660;2022-08-19T03:45:46;2.90;;;1.73;;
34900;SDS011;21112;51.976;5.660;2022-08-19T03:48:13;3.65;;;1.92;;
34900;SDS011;21112;51.976;5.660;2022-08-19T03:50:42;3.63;;;1.77;;
34900;SDS011;21112;51.976;5.660;2022-08-19T03:53:08;3.42;;;1.98;;
34900;SDS011;21112;51.976;5.660;2022-08-19T03:55:38;2.60;;;1.67;;
34900;SDS011;21112;51.976;5.660;2022-08-19T03:58:06;4.38;;;1.85;;
34900;SDS011;21112;51.976;5.660;2022-08-19T04:00:33;3.58;;;1.90;;
34900;SDS011;21112;51.976;5.660;2022-08-19T04:03:00;3.40;;;1.97;;
34900;SDS011;21112;51.976;5.660;2022-08-19T04:05:27;3.80;;;1.92;;
34900;SDS011;21112;51.976;5.660;2022-08-19T04:07:54;3.22;;;1.70;;
34900;SDS011;21112;51.976;5.660;2022-08-19T04:10:23;2.47;;;1.58;;
34900;SDS011;21112;51.976;5.660;2022-08-19T04:12:50;3.13;;;1.80;;
34900;SDS011;21112;51.976;5.660;2022-08-19T04:15:18;3.92;;;2.05;;
34900;SDS011;21112;51.976;5.660;2022-08-19T04:17:45;3.40;;;1.90;;
34900;SDS011;21112;51.976;5.660;2022-08-19T04:20:12;4.05;;;2.00;;
34900;SDS011;21112;51.976;5.660;2022-08-19T04:22:38;3.15;;;2.05;;
34900;SDS011;21112;51.976;5.660;2022-08-19T04:25:05;4.47;;;1.77;;
34900;SDS011;21112;51.976;5.660;2022-08-19T04:27:32;4.63;;;1.83;;
34900;SDS011;21112;51.976;5.660;2022-08-19T04:29:59;2.72;;;1.73;;
34900;SDS011;21112;51.976;5.660;2022-08-19T04:32:27;2.90;;;1.85;;
34900;SDS011;21112;51.976;5.660;2022-08-19T04:34:53;3.30;;;1.90;;
34900;SDS011;21112;51.976;5.660;2022-08-19T04:37:21;3.78;;;1.98;;
34900;SDS011;21112;51.976;5.660;2022-08-19T04:39:48;3.53;;;1.83;;
34900;SDS011;21112;51.976;5.660;2022-08-19T04:42:32;3.08;;;1.67;;
34900;SDS011;21112;51.976;5.660;2022-08-19T04:45:04;3.60;;;1.90;;
34900;SDS011;21112;51.976;5.660;2022-08-19T04:47:33;4.60;;;2.17;;
34900;SDS011;21112;51.976;5.660;2022-08-19T04:49:59;3.70;;;2.03;;
34900;SDS011;21112;51.976;5.660;2022-08-19T04:52:26;4.32;;;1.90;;
34900;SDS011;21112;51.976;5.660;2022-08-19T04:54:53;4.03;;;1.88;;
34900;SDS011;21112;51.976;5.660;2022-08-19T04:57:20;3.85;;;1.70;;
34900;SDS011;21112;51.976;5.660;2022-08-19T04:59:47;2.92;;;1.80;;
34900;SDS011;21112;51.976;5.660;2022-08-19T05:02:14;2.58;;;1.67;;
34900;SDS011;21112;51.976;5.660;2022-08-19T05:04:42;3.75;;;1.77;;
34900;SDS011;21112;51.976;5.660;2022-08-19T05:07:09;3.35;;;2.00;;
34900;SDS011;21112;51.976;5.660;2022-08-19T05:09:36;3.22;;;1.80;;
34900;SDS011;21112;51.976;5.660;2022-08-19T05:12:04;3.88;;;2.00;;
34900;SDS011;21112;51.976;5.660;2022-08-19T05:14:31;4.03;;;2.17;;
34900;SDS011;21112;51.976;5.660;2022-08-19T05:16:58;3.30;;;1.95;;
34900;SDS011;21112;51.976;5.660;2022-08-19T05:19:24;3.85;;;1.92;;
34900;SDS011;21112;51.976;5.660;2022-08-19T05:22:10;4.28;;;1.90;;
34900;SDS011;21112;51.976;5.660;2022-08-19T05:24:54;3.15;;;1.75;;
34900;SDS011;21112;51.976;5.660;2022-08-19T05:27:21;3.10;;;1.95;;
34900;SDS011;21112;51.976;5.660;2022-08-19T05:29:47;3.92;;;1.90;;
34900;SDS011;21112;51.976;5.660;2022-08-19T05:32:14;4.00;;;2.13;;
34900;SDS011;21112;51.976;5.660;2022-08-19T05:34:43;4.32;;;2.30;;
34900;SDS011;21112;51.976;5.660;2022-08-19T05:37:11;3.80;;;2.35;;
34900;SDS011;21112;51.976;5.660;2022-08-19T05:39:37;4.53;;;2.15;;
34900;SDS011;21112;51.976;5.660;2022-08-19T05:42:06;3.53;;;2.17;;
34900;SDS011;21112;51.976;5.660;2022-08-19T05:44:34;3.63;;;2.13;;
34900;SDS011;21112;51.976;5.660;2022-08-19T05:47:02;9.13;;;2.85;;
34900;SDS011;21112;51.976;5.660;2022-08-19T05:49:29;9.85;;;5.13;;
34900;SDS011;21112;51.976;5.660;2022-08-19T05:51:56;6.65;;;3.33;;
34900;SDS011;21112;51.976;5.660;2022-08-19T05:54:25;10.40;;;6.28;;
34900;SDS011;21112;51.976;5.660;2022-08-19T05:56:52;11.65;;;5.00;;
34900;SDS011;21112;51.976;5.660;2022-08-19T05:59:19;18.27;;;7.93;;
34900;SDS011;21112;51.976;5.660;2022-08-19T06:01:47;13.05;;;6.00;;
34900;SDS011;21112;51.976;5.660;2022-08-19T06:04:15;10.70;;;4.68;;
34900;SDS011;21112;51.976;5.660;2022-08-19T06:06:44;12.18;;;6.72;;
34900;SDS011;21112;51.976;5.660;2022-08-19T06:09:10;14.73;;;6.40;;
34900;SDS011;21112;51.976;5.660;2022-08-19T06:11:40;18.50;;;9.07;;
34900;SDS011;21112;51.976;5.660;2022-08-19T06:14:09;13.82;;;7.10;;
34900;SDS011;21112;51.976;5.660;2022-08-19T06:16:36;16.20;;;6.93;;
34900;SDS011;21112;51.976;5.660;2022-08-19T06:19:04;18.07;;;9.20;;
34900;SDS011;21112;51.976;5.660;2022-08-19T06:21:32;15.70;;;7.53;;
34900;SDS011;21112;51.976;5.660;2022-08-19T06:23:59;19.15;;;9.13;;
34900;SDS011;21112;51.976;5.660;2022-08-19T06:26:27;21.67;;;9.83;;
34900;SDS011;21112;51.976;5.660;2022-08-19T06:28:56;17.10;;;7.75;;
34900;SDS011;21112;51.976;5.660;2022-08-19T06:31:25;26.10;;;12.00;;
34900;SDS011;21112;51.976;5.660;2022-08-19T06:33:52;23.83;;;11.38;;
34900;SDS011;21112;51.976;5.660;2022-08-19T06:36:20;30.83;;;13.50;;
34900;SDS011;21112;51.976;5.660;2022-08-19T06:38:46;14.88;;;6.95;;
34900;SDS011;21112;51.976;5.660;2022-08-19T06:41:14;17.88;;;8.27;;
34900;SDS011;21112;51.976;5.660;2022-08-19T06:43:41;20.67;;;10.37;;
34900;SDS011;21112;51.976;5.660;2022-08-19T06:46:13;27.17;;;13.88;;
34900;SDS011;21112;51.976;5.660;2022-08-19T06:48:40;19.52;;;9.00;;
34900;SDS011;21112;51.976;5.660;2022-08-19T06:51:12;22.88;;;9.65;;
34900;SDS011;21112;51.976;5.660;2022-08-19T06:53:40;29.17;;;14.30;;
34900;SDS011;21112;51.976;5.660;2022-08-19T06:56:12;32.83;;;14.95;;
34900;SDS011;21112;51.976;5.660;2022-08-19T06:58:38;18.10;;;8.40;;
34900;SDS011;21112;51.976;5.660;2022-08-19T07:01:05;43.30;;;18.30;;
34900;SDS011;21112;51.976;5.660;2022-08-19T07:03:34;43.53;;;18.90;;
34900;SDS011;21112;51.976;5.660;2022-08-19T07:06:02;26.73;;;12.40;;
34900;SDS011;21112;51.976;5.660;2022-08-19T07:08:29;43.47;;;18.08;;
34900;SDS011;21112;51.976;5.660;2022-08-19T07:10:58;33.72;;;16.20;;
34900;SDS011;21112;51.976;5.660;2022-08-19T07:13:25;43.97;;;19.23;;
34900;SDS011;21112;51.976;5.660;2022-08-19T07:15:52;47.83;;;21.73;;
34900;SDS011;21112;51.976;5.660;2022-08-19T07:18:18;62.30;;;23.63;;
34900;SDS011;21112;51.976;5.660;2022-08-19T07:20:47;44.47;;;19.13;;
34900;SDS011;21112;51.976;5.660;2022-08-19T07:23:14;45.78;;;20.15;;
34900;SDS011;21112;51.976;5.660;2022-08-19T07:25:41;36.97;;;15.95;;
34900;SDS011;21112;51.976;5.660;2022-08-19T07:28:08;44.58;;;19.27;;
34900;SDS011;21112;51.976;5.660;2022-08-19T07:30:36;30.20;;;14.65;;
34900;SDS011;21112;51.976;5.660;2022-08-19T07:35:30;52.88;;;19.90;;
34900;SDS011;21112;51.976;5.660;2022-08-19T07:38:00;31.23;;;14.98;;
34900;SDS011;21112;51.976;5.660;2022-08-19T07:40:29;38.95;;;16.30;;
34900;SDS011;21112;51.976;5.660;2022-08-19T07:42:55;50.92;;;20.52;;
34900;SDS011;21112;51.976;5.660;2022-08-19T07:45:22;55.50;;;22.80;;
34900;SDS011;21112;51.976;5.660;2022-08-19T07:47:49;54.42;;;23.15;;
34900;SDS011;21112;51.976;5.660;2022-08-19T07:50:16;59.08;;;24.83;;
34900;SDS011;21112;51.976;5.660;2022-08-19T07:52:44;34.85;;;16.92;;
34900;SDS011;21112;51.976;5.660;2022-08-19T07:55:12;61.10;;;25.45;;
34900;SDS011;21112;51.976;5.660;2022-08-19T08:00:06;34.42;;;15.75;;
34900;SDS011;21112;51.976;5.660;2022-08-19T08:02:35;52.08;;;22.73;;
34900;SDS011;21112;51.976;5.660;2022-08-19T08:05:03;51.35;;;22.85;;
34900;SDS011;21112;51.976;5.660;2022-08-19T08:07:47;51.15;;;22.60;;
34900;SDS011;21112;51.976;5.660;2022-08-19T08:10:34;41.60;;;19.45;;
34900;SDS011;21112;51.976;5.660;2022-08-19T08:13:01;43.85;;;18.30;;
34900;SDS011;21112;51.976;5.660;2022-08-19T08:15:33;33.05;;;14.23;;
34900;SDS011;21112;51.976;5.660;2022-08-19T08:18:00;33.33;;;16.52;;
34900;SDS011;21112;51.976;5.660;2022-08-19T08:20:27;54.55;;;22.20;;
34900;SDS011;21112;51.976;5.660;2022-08-19T08:22:54;49.40;;;22.60;;
34900;SDS011;21112;51.976;5.660;2022-08-19T08:25:40;42.45;;;18.25;;
34900;SDS011;21112;51.976;5.660;2022-08-19T08:28:08;45.08;;;19.75;;
34900;SDS011;21112;51.976;5.660;2022-08-19T08:30:36;44.03;;;20.10;;
34900;SDS011;21112;51.976;5.660;2022-08-19T08:33:06;45.17;;;21.10;;
34900;SDS011;21112;51.976;5.660;2022-08-19T08:35:34;43.20;;;20.25;;
34900;SDS011;21112;51.976;5.660;2022-08-19T08:38:00;42.72;;;18.23;;
34900;SDS011;21112;51.976;5.660;2022-08-19T08:40:30;43.92;;;19.85;;
34900;SDS011;21112;51.976;5.660;2022-08-19T08:42:59;37.38;;;16.40;;
34900;SDS011;21112;51.976;5.660;2022-08-19T08:45:30;38.92;;;17.50;;
34900;SDS011;21112;51.976;5.660;2022-08-19T08:50:27;37.65;;;16.77;;
34900;SDS011;21112;51.976;5.660;2022-08-19T08:52:57;30.10;;;14.32;;
34900;SDS011;21112;51.976;5.660;2022-08-19T08:55:25;31.55;;;15.77;;
34900;SDS011;21112;51.976;5.660;2022-08-19T08:57:55;37.75;;;15.13;;
34900;SDS011;21112;51.976;5.660;2022-08-19T09:00:29;34.63;;;15.38;;
34900;SDS011;21112;51.976;5.660;2022-08-19T09:02:58;34.10;;;16.75;;
34900;SDS011;21112;51.976;5.660;2022-08-19T09:05:35;30.65;;;15.65;;
34900;SDS011;21112;51.976;5.660;2022-08-19T09:08:07;34.85;;;15.63;;
34900;SDS011;21112;51.976;5.660;2022-08-19T09:10:36;26.67;;;12.25;;
34900;SDS011;21112;51.976;5.660;2022-08-19T09:13:07;30.65;;;14.55;;
34900;SDS011;21112;51.976;5.660;2022-08-19T09:15:40;30.08;;;14.38;;
34900;SDS011;21112;51.976;5.660;2022-08-19T09:18:12;29.15;;;13.95;;
34900;SDS011;21112;51.976;5.660;2022-08-19T09:20:39;33.95;;;15.00;;
34900;SDS011;21112;51.976;5.660;2022-08-19T09:23:06;27.92;;;14.00;;
34900;SDS011;21112;51.976;5.660;2022-08-19T09:25:35;30.15;;;14.05;;
34900;SDS011;21112;51.976;5.660;2022-08-19T09:28:02;31.90;;;15.02;;
34900;SDS011;21112;51.976;5.660;2022-08-19T09:30:30;25.27;;;12.82;;
34900;SDS011;21112;51.976;5.660;2022-08-19T09:35:27;26.27;;;11.80;;
34900;SDS011;21112;51.976;5.660;2022-08-19T09:37:55;25.25;;;12.77;;
34900;SDS011;21112;51.976;5.660;2022-08-19T09:40:22;27.77;;;13.18;;
34900;SDS011;21112;51.976;5.660;2022-08-19T09:42:49;36.45;;;15.00;;
34900;SDS011;21112;51.976;5.660;2022-08-19T09:45:16;25.55;;;13.25;;
34900;SDS011;21112;51.976;5.660;2022-08-19T09:47:45;27.52;;;12.75;;
34900;SDS011;21112;51.976;5.660;2022-08-19T09:50:12;25.95;;;13.20;;
34900;SDS011;21112;51.976;5.660;2022-08-19T09:52:41;29.73;;;13.40;;
34900;SDS011;21112;51.976;5.660;2022-08-19T09:55:09;22.83;;;11.48;;
34900;SDS011;21112;51.976;5.660;2022-08-19T09:57:36;24.30;;;11.43;;
34900;SDS011;21112;51.976;5.660;2022-08-19T10:00:04;30.20;;;12.65;;
34900;SDS011;21112;51.976;5.660;2022-08-19T10:02:32;29.67;;;13.02;;
34900;SDS011;21112;51.976;5.660;2022-08-19T10:04:58;20.95;;;10.20;;
34900;SDS011;21112;51.976;5.660;2022-08-19T10:07:44;27.30;;;12.75;;
34900;SDS011;21112;51.976;5.660;2022-08-19T10:10:10;28.92;;;11.32;;
34900;SDS011;21112;51.976;5.660;2022-08-19T10:12:37;25.48;;;11.63;;
34900;SDS011;21112;51.976;5.660;2022-08-19T10:15:04;30.40;;;14.50;;
34900;SDS011;21112;51.976;5.660;2022-08-19T10:17:31;24.30;;;10.98;;
34900;SDS011;21112;51.976;5.660;2022-08-19T10:22:27;34.35;;;14.20;;
34900;SDS011;21112;51.976;5.660;2022-08-19T10:24:55;28.77;;;14.23;;
34900;SDS011;21112;51.976;5.660;2022-08-19T10:29:50;25.27;;;11.93;;
34900;SDS011;21112;51.976;5.660;2022-08-19T10:32:17;27.83;;;12.23;;
34900;SDS011;21112;51.976;5.660;2022-08-19T10:34:44;26.55;;;12.68;;
34900;SDS011;21112;51.976;5.660;2022-08-19T10:37:11;27.52;;;12.38;;
34900;SDS011;21112;51.976;5.660;2022-08-19T10:39:38;25.63;;;11.77;;
34900;SDS011;21112;51.976;5.660;2022-08-19T10:42:07;19.02;;;9.90;;
34900;SDS011;21112;51.976;5.660;2022-08-19T10:44:35;36.42;;;14.32;;
34900;SDS011;21112;51.976;5.660;2022-08-19T10:47:02;24.38;;;10.43;;
34900;SDS011;21112;51.976;5.660;2022-08-19T10:49:29;24.60;;;11.20;;
34900;SDS011;21112;51.976;5.660;2022-08-19T10:51:57;23.33;;;10.48;;
34900;SDS011;21112;51.976;5.660;2022-08-19T10:54:41;29.38;;;12.45;;
34900;SDS011;21112;51.976;5.660;2022-08-19T10:57:27;29.63;;;13.25;;
34900;SDS011;21112;51.976;5.660;2022-08-19T10:59:56;25.80;;;10.98;;
34900;SDS011;21112;51.976;5.660;2022-08-19T11:02:23;19.75;;;10.13;;
34900;SDS011;21112;51.976;5.660;2022-08-19T11:04:49;31.52;;;11.27;;
34900;SDS011;21112;51.976;5.660;2022-08-19T11:07:16;17.05;;;8.13;;
34900;SDS011;21112;51.976;5.660;2022-08-19T11:09:43;26.77;;;10.73;;
34900;SDS011;21112;51.976;5.660;2022-08-19T11:12:11;28.40;;;12.50;;
34900;SDS011;21112;51.976;5.660;2022-08-19T11:14:41;16.33;;;8.57;;
34900;SDS011;21112;51.976;5.660;2022-08-19T11:17:07;23.50;;;11.98;;
34900;SDS011;21112;51.976;5.660;2022-08-19T11:19:35;17.55;;;9.75;;
34900;SDS011;21112;51.976;5.660;2022-08-19T11:22:03;23.17;;;12.20;;
34900;SDS011;21112;51.976;5.660;2022-08-19T11:24:30;20.45;;;10.20;;
34900;SDS011;21112;51.976;5.660;2022-08-19T11:27:00;30.92;;;12.55;;
34900;SDS011;21112;51.976;5.660;2022-08-19T11:29:27;23.83;;;11.18;;
34900;SDS011;21112;51.976;5.660;2022-08-19T11:31:56;20.42;;;9.30;;
34900;SDS011;21112;51.976;5.660;2022-08-19T11:36:50;23.38;;;11.60;;
34900;SDS011;21112;51.976;5.660;2022-08-19T11:39:17;17.02;;;8.18;;
34900;SDS011;21112;51.976;5.660;2022-08-19T11:41:44;18.02;;;9.50;;
34900;SDS011;21112;51.976;5.660;2022-08-19T11:44:11;18.60;;;11.13;;
34900;SDS011;21112;51.976;5.660;2022-08-19T11:46:39;20.75;;;10.40;;
34900;SDS011;21112;51.976;5.660;2022-08-19T11:49:07;24.75;;;11.70;;
34900;SDS011;21112;51.976;5.660;2022-08-19T11:51:34;27.70;;;13.68;;
34900;SDS011;21112;51.976;5.660;2022-08-19T11:54:01;30.15;;;14.23;;
34900;SDS011;21112;51.976;5.660;2022-08-19T11:56:28;17.08;;;9.25;;
34900;SDS011;21112;51.976;5.660;2022-08-19T11:58:55;20.38;;;11.30;;
34900;SDS011;21112;51.976;5.660;2022-08-19T12:01:24;22.13;;;12.77;;
34900;SDS011;21112;51.976;5.660;2022-08-19T12:03:52;33.47;;;15.27;;
34900;SDS011;21112;51.976;5.660;2022-08-19T12:06:21;18.55;;;10.15;;
34900;SDS011;21112;51.976;5.660;2022-08-19T12:08:50;24.73;;;11.73;;
34900;SDS011;21112;51.976;5.660;2022-08-19T12:11:17;31.38;;;13.30;;
34900;SDS011;21112;51.976;5.660;2022-08-19T12:13:44;22.17;;;10.48;;
34900;SDS011;21112;51.976;5.660;2022-08-19T12:16:13;23.33;;;11.65;;
34900;SDS011;21112;51.976;5.660;2022-08-19T12:18:40;31.75;;;15.80;;
34900;SDS011;21112;51.976;5.660;2022-08-19T12:21:10;19.80;;;10.18;;
34900;SDS011;21112;51.976;5.660;2022-08-19T12:23:40;26.60;;;14.85;;
34900;SDS011;21112;51.976;5.660;2022-08-19T12:26:08;31.17;;;15.68;;
34900;SDS011;21112;51.976;5.660;2022-08-19T12:28:35;20.95;;;10.27;;
34900;SDS011;21112;51.976;5.660;2022-08-19T12:31:02;24.30;;;12.48;;
34900;SDS011;21112;51.976;5.660;2022-08-19T12:33:29;17.42;;;9.15;;
34900;SDS011;21112;51.976;5.660;2022-08-19T12:35:59;21.23;;;12.02;;
34900;SDS011;21112;51.976;5.660;2022-08-19T12:38:27;21.17;;;11.95;;
34900;SDS011;21112;51.976;5.660;2022-08-19T12:40:55;15.02;;;8.43;;
34900;SDS011;21112;51.976;5.660;2022-08-19T12:43:22;20.05;;;11.15;;
34900;SDS011;21112;51.976;5.660;2022-08-19T12:45:49;21.90;;;10.45;;
34900;SDS011;21112;51.976;5.660;2022-08-19T12:48:16;23.60;;;12.63;;
34900;SDS011;21112;51.976;5.660;2022-08-19T12:50:44;29.80;;;14.33;;
34900;SDS011;21112;51.976;5.660;2022-08-19T12:53:13;18.92;;;10.38;;
34900;SDS011;21112;51.976;5.660;2022-08-19T12:55:40;20.33;;;11.40;;
34900;SDS011;21112;51.976;5.660;2022-08-19T12:58:09;13.48;;;8.23;;
34900;SDS011;21112;51.976;5.660;2022-08-19T13:00:39;18.10;;;8.50;;
34900;SDS011;21112;51.976;5.660;2022-08-19T13:05:32;14.40;;;7.68;;
34900;SDS011;21112;51.976;5.660;2022-08-19T13:07:59;24.93;;;12.60;;
34900;SDS011;21112;51.976;5.660;2022-08-19T13:10:27;30.13;;;14.85;;
34900;SDS011;21112;51.976;5.660;2022-08-19T13:12:54;17.90;;;10.82;;
34900;SDS011;21112;51.976;5.660;2022-08-19T13:15:23;19.15;;;11.07;;
34900;SDS011;21112;51.976;5.660;2022-08-19T13:17:50;21.13;;;11.70;;
34900;SDS011;21112;51.976;5.660;2022-08-19T13:20:18;20.20;;;10.25;;
34900;SDS011;21112;51.976;5.660;2022-08-19T13:22:45;15.85;;;8.48;;
34900;SDS011;21112;51.976;5.660;2022-08-19T13:25:13;16.40;;;9.45;;
34900;SDS011;21112;51.976;5.660;2022-08-19T13:27:41;14.15;;;7.70;;
34900;SDS011;21112;51.976;5.660;2022-08-19T13:30:08;19.70;;;10.10;;
34900;SDS011;21112;51.976;5.660;2022-08-19T13:32:55;17.10;;;9.43;;
34900;SDS011;21112;51.976;5.660;2022-08-19T13:35:40;16.83;;;8.23;;
34900;SDS011;21112;51.976;5.660;2022-08-19T13:38:07;23.90;;;11.98;;
34900;SDS011;21112;51.976;5.660;2022-08-19T13:40:34;22.50;;;11.07;;
34900;SDS011;21112;51.976;5.660;2022-08-19T13:43:01;18.30;;;9.93;;
34900;SDS011;21112;51.976;5.660;2022-08-19T13:47:57;23.05;;;10.05;;
34900;SDS011;21112;51.976;5.660;2022-08-19T13:50:25;11.88;;;6.63;;
34900;SDS011;21112;51.976;5.660;2022-08-19T13:55:18;17.23;;;8.38;;
34900;SDS011;21112;51.976;5.660;2022-08-19T13:57:45;28.55;;;12.55;;
34900;SDS011;21112;51.976;5.660;2022-08-19T14:00:13;19.70;;;9.43;;
34900;SDS011;21112;51.976;5.660;2022-08-19T14:02:40;12.13;;;6.53;;
34900;SDS011;21112;51.976;5.660;2022-08-19T14:05:10;11.48;;;6.68;;
34900;SDS011;21112;51.976;5.660;2022-08-19T14:07:37;21.60;;;11.70;;
34900;SDS011;21112;51.976;5.660;2022-08-19T14:10:05;19.05;;;8.68;;
34900;SDS011;21112;51.976;5.660;2022-08-19T14:12:32;17.65;;;9.57;;
34900;SDS011;21112;51.976;5.660;2022-08-19T14:14:58;14.15;;;6.60;;
34900;SDS011;21112;51.976;5.660;2022-08-19T14:17:25;12.35;;;5.82;;
34900;SDS011;21112;51.976;5.660;2022-08-19T14:19:55;11.20;;;5.57;;
34900;SDS011;21112;51.976;5.660;2022-08-19T14:22:23;12.57;;;5.97;;
34900;SDS011;21112;51.976;5.660;2022-08-19T14:24:50;11.15;;;5.50;;
34900;SDS011;21112;51.976;5.660;2022-08-19T14:27:16;6.80;;;4.35;;
34900;SDS011;21112;51.976;5.660;2022-08-19T14:29:43;8.52;;;3.97;;
34900;SDS011;21112;51.976;5.660;2022-08-19T14:32:10;8.27;;;4.43;;
34900;SDS011;21112;51.976;5.660;2022-08-19T14:34:37;8.98;;;4.60;;
34900;SDS011;21112;51.976;5.660;2022-08-19T14:37:04;12.38;;;5.20;;
34900;SDS011;21112;51.976;5.660;2022-08-19T14:39:32;11.07;;;5.15;;
34900;SDS011;21112;51.976;5.660;2022-08-19T14:44:26;6.32;;;3.40;;
34900;SDS011;21112;51.976;5.660;2022-08-19T14:46:52;7.80;;;3.38;;
34900;SDS011;21112;51.976;5.660;2022-08-19T14:49:19;20.70;;;3.38;;
34900;SDS011;21112;51.976;5.660;2022-08-19T14:51:48;7.85;;;3.28;;
34900;SDS011;21112;51.976;5.660;2022-08-19T14:54:15;7.22;;;3.22;;
34900;SDS011;21112;51.976;5.660;2022-08-19T14:56:43;6.68;;;2.10;;
34900;SDS011;21112;51.976;5.660;2022-08-19T14:59:09;6.95;;;2.85;;
34900;SDS011;21112;51.976;5.660;2022-08-19T15:01:36;5.80;;;2.85;;
34900;SDS011;21112;51.976;5.660;2022-08-19T15:04:03;6.82;;;2.53;;
34900;SDS011;21112;51.976;5.660;2022-08-19T15:06:29;7.30;;;2.65;;
34900;SDS011;21112;51.976;5.660;2022-08-19T15:08:56;8.88;;;2.63;;
34900;SDS011;21112;51.976;5.660;2022-08-19T15:11:24;6.82;;;3.20;;